Brewster, WA (98812)

9:47 PM PDT on July 24, 2014 (GMT -0700)
KWABREWS2 Elev 1004 ft | 48.15 °N, 119.69 °W | Change Station

Current weather conditions updated 2 seconds ago

Clear
Clear
65.8 °F
Feels Like 65.8 °F
N
1.0
Wind Variable Wind from North
Gusts 3.0 mph

Tomorrow is forecast to be nearly the same temperature as today.

Today
High -- | Low -- °F
--% Chance of Precip.
Yesterday
High -- | Low -- °F
Precip. -- in
5:24 AM 8:45 PM
Waning Crescent, 3% visible
Pressure 30.04 in
Visibility 10.0 miles
Clouds Clear
Dew Point 42 °F
Humidity 42%
Rainfall 0.00 in
Snow Depth Not available.
UV 0.0 out of 12
Pollen 5.70 out of 12
Air Quality Not available.
Flu Activity Not available.
METAR KOMK 250353Z AUTO 27003KT 10SM CLR 18/03 A3004 RMK AO2 SLP170 T01830028

More Conditions Fewer Conditions

Pressure 30.04 in
Visibility 10.0 miles
Clouds Clear
Dew Point 42 °F
Humidity 42%
Rainfall 0.00 in
Snow Depth Not available.
UV 0.0 out of 12
Pollen 5.70 out of 12
Air Quality Not available.
Flu Activity Not available.
METAR KOMK 250353Z AUTO 27003KT 10SM CLR 18/03 A3004 RMK AO2 SLP170 T01830028

More Conditions Fewer Conditions

10-Day Weather Forecast

Almanac

Astronomy

Jul. 24, 2014 Rise Set
Actual Time 5:24 AM PDT 8:45 PM PDT
Civil Twilight 4:46 AM PDT 9:23 PM PDT
Nautical Twilight 3:56 AM PDT 10:13 PM PDT
Astronomical Twilight 2:51 AM PDT 11:17 PM PDT
Moon 3:39 AM PDT (7/24) 7:01 PM PDT (7/24)
Length of Visible Light 16h 36m
Length of Day
15h 20m
Tomorrow will be 2m 25s shorter.
Waning Crescent, 3% of the Moon is Illuminated
Jul 25
Waning Crescent
Jul 26
New
Aug 3
First Quarter
Aug 10
Full
Aug 17
Last Quarter

Yesterday's Extremes

State Highs State Lows

Community

WunderPhotos

Upload Photos

1,737,244 photos uploaded!

Nearby

Snow Depth

Station Depth Elevation
Moses Mountain 1 in 5300 ft
Rainy Pass 0 in 4780 ft
Harts Pass 0 in 6500 ft
Stevens Pass 0 in 4070 ft
Trough 0 in 5300 ft

Earthquake Activity

City Distance Mag. Time & Date
No recent earthquake activity has been reported nearby.
Minimum magnitude displayed is 2.5.

Coastal Water Temperatures

Place Temperature
No Stations Reporting

Nearby Weather Stations

Station Location Temp. Heat Index Dew Point Humidity Wind Precip. Elev Updated Type
Brewster, WA 65.8 °F - 42 °F 42% North  at  1.0 mph 0.00 in / hr 1004 ft 9:47 PM PDT Rapid Fire
OKANOGAN / MALOTT, Okanogan, WA 70.7 °F 76 °F 39 °F 32% WSW  at  11.0 mph 0.00 in / hr 910 ft 7:40 PM PDT Rapid Fire
Harris Rd, Okanogan, WA 62.4 °F - 12 °F 14% SSW  at  3.0 mph - / hr 814 ft 9:45 PM PDT Normal
The Highlands, Chelan, WA 63.0 °F - 46 °F 54% West  at  3.0 mph 0.00 in / hr 1580 ft 9:37 PM PDT Normal
APRSWXNET Chelan Area, Chelan, WA 65.8 °F - 38 °F 35% West  at  4.0 mph 0.00 in / hr 1169 ft 9:47 PM PDT Rapid Fire
RAWS CAMP 4 WA, Methow, WA 56 °F - 42 °F 59% WNW  at  2 mph 0.00 in / hr 3156 ft 8:26 PM PDT MADIS
RAWS LEECHER WA, Carlton, WA 51 °F - 32 °F 48% NNW  at  3 mph 0.00 in / hr 4991 ft 8:25 PM PDT MADIS

Show More Stations Show Fewer Stations